createdAt,value
2022-08-16T00:01:22.058Z,56.37
2022-08-16T00:03:52.902Z,56.21
2022-08-16T00:06:21.050Z,56.39
2022-08-16T00:08:49.385Z,56.26
2022-08-16T00:11:18.850Z,56.09
2022-08-16T00:13:53.337Z,56.13
2022-08-16T00:17:05.779Z,56.37
2022-08-16T00:19:13.471Z,56.22
2022-08-16T00:21:42.588Z,56.22
2022-08-16T00:24:11.566Z,56.16
2022-08-16T00:26:44.385Z,56.38
2022-08-16T00:29:15.451Z,56.33
2022-08-16T00:31:58.900Z,56.24
2022-08-16T00:34:45.132Z,56.17
2022-08-16T00:37:18.539Z,56.05
2022-08-16T00:39:58.411Z,56.06
2022-08-16T00:42:31.726Z,56.13
2022-08-16T00:45:06.473Z,56.09
2022-08-16T00:47:38.475Z,56.20
2022-08-16T00:50:11.432Z,55.88
2022-08-16T00:52:45.724Z,56.14
2022-08-16T00:55:19.375Z,56.03
2022-08-16T00:57:58.981Z,56.03
2022-08-16T01:00:29.451Z,55.88
2022-08-16T01:02:58.180Z,56.16
2022-08-16T01:05:27.233Z,55.99
2022-08-16T01:07:55.477Z,55.98
2022-08-16T01:10:31.262Z,55.99
2022-08-16T01:13:02.302Z,55.89
2022-08-16T01:15:32.947Z,55.92
2022-08-16T01:18:01.048Z,55.98
2022-08-16T01:20:30.583Z,55.87
2022-08-16T01:23:03.819Z,55.80
2022-08-16T01:25:40.190Z,55.89
2022-08-16T01:28:09.280Z,55.99
2022-08-16T01:30:39.784Z,55.91
2022-08-16T01:33:14.667Z,56.16
2022-08-16T01:35:52.289Z,55.47
2022-08-16T01:38:22.635Z,55.42
2022-08-16T01:40:56.930Z,55.72
2022-08-16T01:43:25.742Z,55.84
2022-08-16T01:45:57.746Z,55.74
2022-08-16T01:48:28.215Z,55.46
2022-08-16T01:51:16.575Z,56.09
2022-08-16T01:53:45.327Z,55.68
2022-08-16T01:56:32.689Z,55.78
2022-08-16T01:59:04.728Z,55.69
2022-08-16T02:01:33.751Z,55.52
2022-08-16T02:04:10.779Z,55.36
2022-08-16T02:06:46.759Z,55.67
2022-08-16T02:09:18.787Z,55.59
2022-08-16T02:11:54.130Z,55.45
2022-08-16T02:14:26.654Z,55.39
2022-08-16T02:16:56.749Z,55.34
2022-08-16T02:19:25.306Z,55.44
2022-08-16T02:22:33.466Z,55.51
2022-08-16T02:25:03.530Z,55.15
2022-08-16T02:27:33.038Z,55.32
2022-08-16T02:30:05.697Z,55.38
2022-08-16T02:32:50.531Z,55.31
2022-08-16T02:35:23.214Z,55.47
2022-08-16T02:37:53.128Z,55.29
2022-08-16T02:40:25.846Z,55.14
2022-08-16T02:42:55.840Z,55.17
2022-08-16T02:45:27.849Z,55.16
2022-08-16T02:48:01.839Z,55.11
2022-08-16T02:50:53.510Z,55.25
2022-08-16T02:53:31.717Z,54.94
2022-08-16T02:56:00.360Z,55.02
2022-08-16T02:58:33.825Z,54.78
2022-08-16T03:01:02.857Z,54.89
2022-08-16T03:04:30.017Z,54.93
2022-08-16T03:06:41.338Z,54.81
2022-08-16T03:09:21.682Z,54.88
2022-08-16T03:11:54.239Z,54.72
2022-08-16T03:14:25.078Z,54.71
2022-08-16T03:16:59.461Z,54.70
2022-08-16T03:19:48.366Z,54.39
2022-08-16T03:22:28.464Z,54.88
2022-08-16T03:25:07.279Z,54.46
2022-08-16T03:27:39.069Z,54.63
2022-08-16T03:30:17.565Z,54.54
2022-08-16T03:32:55.686Z,54.57
2022-08-16T03:35:32.784Z,54.54
2022-08-16T03:38:32.627Z,54.45
2022-08-16T03:40:59.622Z,54.71
2022-08-16T03:43:50.650Z,54.27
2022-08-16T03:46:47.597Z,54.44
2022-08-16T03:49:12.564Z,54.25
2022-08-16T03:51:43.606Z,54.35
2022-08-16T03:54:18.767Z,54.33
2022-08-16T03:56:57.254Z,54.14
2022-08-16T03:59:31.390Z,54.16
2022-08-16T04:02:12.084Z,54.17
2022-08-16T04:04:51.569Z,53.64
2022-08-16T04:07:20.001Z,54.08
2022-08-16T04:09:49.222Z,54.09
2022-08-16T04:12:53.479Z,54.19
2022-08-16T04:15:07.806Z,54.04
2022-08-16T04:17:42.576Z,53.98
2022-08-16T04:20:29.512Z,54.00
2022-08-16T04:23:03.251Z,53.80
2022-08-16T04:25:33.477Z,53.95
2022-08-16T04:28:52.172Z,53.94
2022-08-16T04:30:50.670Z,53.76
2022-08-16T04:33:27.071Z,53.93
2022-08-16T04:35:59.035Z,53.77
2022-08-16T04:38:30.548Z,53.53
2022-08-16T04:40:59.761Z,53.60
2022-08-16T04:43:29.280Z,53.57
2022-08-16T04:46:00.433Z,53.53
2022-08-16T04:48:33.950Z,53.73
2022-08-16T04:51:11.550Z,53.65
2022-08-16T04:53:48.066Z,53.55
2022-08-16T04:56:17.334Z,53.38
2022-08-16T04:58:46.957Z,53.55
2022-08-16T05:01:19.455Z,53.59
2022-08-16T05:03:59.838Z,53.66
2022-08-16T05:06:44.928Z,53.51
2022-08-16T05:09:23.097Z,53.47
2022-08-16T05:11:57.431Z,53.50
2022-08-16T05:14:45.618Z,53.76
2022-08-16T05:17:24.910Z,53.42
2022-08-16T05:19:58.663Z,53.47
2022-08-16T05:22:38.683Z,53.77
2022-08-16T05:25:11.584Z,53.60
2022-08-16T05:27:45.330Z,53.30
2022-08-16T05:30:36.744Z,53.47
2022-08-16T05:33:09.104Z,53.55
2022-08-16T05:35:55.139Z,53.59
2022-08-16T05:38:47.385Z,53.41
2022-08-16T05:41:16.917Z,53.76
2022-08-16T05:43:47.685Z,53.62
2022-08-16T05:46:31.466Z,53.96
2022-08-16T05:49:16.646Z,53.79
2022-08-16T05:51:54.833Z,53.86
2022-08-16T05:54:25.035Z,53.95
2022-08-16T05:56:55.858Z,54.16
2022-08-16T05:59:26.875Z,54.25
2022-08-16T06:01:57.371Z,54.53
2022-08-16T06:04:36.533Z,54.63
2022-08-16T06:07:26.335Z,54.88
2022-08-16T06:10:32.369Z,54.70
2022-08-16T06:13:04.168Z,54.84
2022-08-16T06:15:33.195Z,54.83
2022-08-16T06:18:04.505Z,55.02
2022-08-16T06:20:35.761Z,55.64
2022-08-16T06:23:18.031Z,55.85
2022-08-16T06:26:07.609Z,55.79
2022-08-16T06:28:40.133Z,55.95
2022-08-16T06:31:14.990Z,56.07
2022-08-16T06:33:47.110Z,56.04
2022-08-16T06:36:17.752Z,56.44
2022-08-16T06:38:59.894Z,56.39
2022-08-16T06:41:48.074Z,56.65
2022-08-16T06:44:39.539Z,56.49
2022-08-16T06:47:16.850Z,56.61
2022-08-16T06:49:52.921Z,56.99
2022-08-16T06:52:59.602Z,56.79
2022-08-16T06:55:16.856Z,57.05
2022-08-16T06:57:49.969Z,57.04
2022-08-16T07:00:24.634Z,56.95
2022-08-16T07:03:27.420Z,57.22
2022-08-16T07:05:58.041Z,57.45
2022-08-16T07:08:32.286Z,57.21
2022-08-16T07:11:02.295Z,57.31
2022-08-16T07:16:27.652Z,57.11
2022-08-16T07:19:01.982Z,57.68
2022-08-16T07:21:46.674Z,57.66
2022-08-16T07:24:29.460Z,57.40
2022-08-16T07:27:03.682Z,57.44
2022-08-16T07:29:36.605Z,57.54
2022-08-16T07:32:10.179Z,57.79
2022-08-16T07:34:48.448Z,57.88
2022-08-16T07:37:18.476Z,57.85
2022-08-16T07:40:14.009Z,58.06
2022-08-16T07:42:47.006Z,58.06
2022-08-16T07:45:17.093Z,58.16
2022-08-16T07:47:51.132Z,58.26
2022-08-16T07:50:57.893Z,57.89
2022-08-16T07:53:08.666Z,58.28
2022-08-16T07:55:45.718Z,58.53
2022-08-16T07:58:34.925Z,58.77
2022-08-16T08:01:10.367Z,59.11
2022-08-16T08:03:48.801Z,59.06
2022-08-16T08:06:21.134Z,59.04
2022-08-16T08:08:57.511Z,59.05
2022-08-16T08:11:29.258Z,59.16
2022-08-16T08:14:03.774Z,59.40
2022-08-16T08:16:36.593Z,59.55
2022-08-16T08:19:10.500Z,59.52
2022-08-16T08:22:00.039Z,59.99
2022-08-16T08:24:45.293Z,59.41
2022-08-16T08:27:23.109Z,59.79
2022-08-16T08:30:49.911Z,59.72
2022-08-16T08:32:57.668Z,59.62
2022-08-16T08:35:28.553Z,59.91
2022-08-16T08:37:58.600Z,59.82
2022-08-16T08:40:29.567Z,59.88
2022-08-16T08:43:00.762Z,59.61
2022-08-16T08:45:46.794Z,59.73
2022-08-16T08:48:32.914Z,59.60
2022-08-16T08:51:04.434Z,59.67
2022-08-16T08:53:34.331Z,59.60
2022-08-16T08:56:23.278Z,59.63
2022-08-16T08:58:54.784Z,59.80
2022-08-16T09:01:42.635Z,59.59
2022-08-16T09:04:14.894Z,59.47
2022-08-16T09:06:47.370Z,59.65
2022-08-16T09:09:17.687Z,59.69
2022-08-16T09:11:58.328Z,59.83
2022-08-16T09:14:49.529Z,59.58
2022-08-16T09:17:47.170Z,59.49
2022-08-16T09:20:16.753Z,59.94
2022-08-16T09:22:52.348Z,59.56
2022-08-16T09:25:33.938Z,59.53
2022-08-16T09:28:08.973Z,59.32
2022-08-16T09:30:44.003Z,59.59
2022-08-16T09:33:19.955Z,59.62
2022-08-16T09:35:53.576Z,59.64
2022-08-16T09:38:22.424Z,59.81
2022-08-16T09:41:01.289Z,59.40
2022-08-16T09:46:45.815Z,59.49
2022-08-16T09:49:08.542Z,59.57
2022-08-16T09:51:38.187Z,59.90
2022-08-16T09:54:09.591Z,59.48
2022-08-16T09:56:38.859Z,59.76
2022-08-16T09:59:08.560Z,59.73
2022-08-16T10:01:36.861Z,59.51
2022-08-16T10:04:10.869Z,59.53
2022-08-16T10:09:53.583Z,59.67
2022-08-16T10:12:35.001Z,59.41
2022-08-16T10:15:15.534Z,59.67
2022-08-16T10:17:45.776Z,59.62
2022-08-16T10:20:33.997Z,59.72
2022-08-16T10:23:07.378Z,59.56
2022-08-16T10:27:16.552Z,59.47
2022-08-16T10:28:29.712Z,59.52
2022-08-16T10:30:59.817Z,59.73
2022-08-16T10:33:29.801Z,59.65
2022-08-16T10:36:04.956Z,59.47
2022-08-16T10:38:36.659Z,59.51
2022-08-16T10:41:07.021Z,59.58
2022-08-16T10:43:36.172Z,59.59
2022-08-16T10:46:33.601Z,59.45
2022-08-16T10:48:52.766Z,59.20
2022-08-16T10:51:27.833Z,59.42
2022-08-16T10:54:04.912Z,59.48
2022-08-16T10:56:55.917Z,59.22
2022-08-16T10:59:32.658Z,59.21
2022-08-16T11:02:58.248Z,59.38
2022-08-16T11:05:11.497Z,59.18
2022-08-16T11:07:42.638Z,58.83
2022-08-16T11:13:21.111Z,59.28
2022-08-16T11:15:55.500Z,58.84
2022-08-16T11:18:47.846Z,58.82
2022-08-16T11:21:28.607Z,58.62
2022-08-16T11:23:59.900Z,58.44
2022-08-16T11:26:28.270Z,58.40
2022-08-16T11:29:13.883Z,58.34
2022-08-16T11:31:45.638Z,58.34
2022-08-16T11:34:19.837Z,58.37
2022-08-16T11:36:53.616Z,58.17
2022-08-16T11:39:30.791Z,58.01
2022-08-16T11:42:00.094Z,58.08
2022-08-16T11:44:45.329Z,57.66
2022-08-16T11:47:16.258Z,57.91
2022-08-16T11:49:44.375Z,57.71
2022-08-16T11:52:12.454Z,57.62
2022-08-16T11:54:47.762Z,57.60
2022-08-16T11:57:25.108Z,57.31
2022-08-16T11:59:54.958Z,57.42
2022-08-16T12:02:30.924Z,57.17
2022-08-16T12:05:01.255Z,57.00
2022-08-16T12:07:29.386Z,56.89
2022-08-16T12:10:02.826Z,56.87
2022-08-16T12:12:32.767Z,57.05
2022-08-16T12:15:02.285Z,56.33
2022-08-16T12:17:31.583Z,56.59
2022-08-16T12:20:00.243Z,56.21
2022-08-16T12:22:29.193Z,56.23
2022-08-16T12:24:57.299Z,56.17
2022-08-16T12:27:27.285Z,56.11
2022-08-16T12:29:58.508Z,56.07
2022-08-16T12:32:39.227Z,56.04
2022-08-16T12:35:12.344Z,56.08
2022-08-16T12:37:41.654Z,55.95
2022-08-16T12:40:23.686Z,55.82
2022-08-16T12:42:58.596Z,55.85
2022-08-16T12:45:28.753Z,55.89
2022-08-16T12:48:32.753Z,55.96
2022-08-16T12:50:58.825Z,55.82
2022-08-16T12:53:32.105Z,55.85
2022-08-16T12:56:00.543Z,56.18
2022-08-16T12:58:49.052Z,55.90
2022-08-16T13:01:18.428Z,55.91
2022-08-16T13:03:46.790Z,56.02
2022-08-16T13:06:19.980Z,55.97
2022-08-16T13:08:48.502Z,55.84
2022-08-16T13:11:18.202Z,56.25
2022-08-16T13:13:47.741Z,56.27
2022-08-16T13:16:24.887Z,56.11
2022-08-16T13:18:54.385Z,55.85
2022-08-16T13:21:23.690Z,56.00
2022-08-16T13:23:55.765Z,56.05
2022-08-16T13:26:26.309Z,56.08
2022-08-16T13:28:56.380Z,56.31
2022-08-16T13:31:24.672Z,56.21
2022-08-16T13:33:58.907Z,56.25
2022-08-16T13:39:17.216Z,55.99
2022-08-16T13:41:54.106Z,56.16
2022-08-16T13:44:48.942Z,56.29
2022-08-16T13:47:12.801Z,56.09
2022-08-16T13:49:41.426Z,56.33
2022-08-16T13:52:11.605Z,56.58
2022-08-16T13:54:39.982Z,56.33
2022-08-16T13:57:08.089Z,56.29
2022-08-16T13:59:41.857Z,56.34
2022-08-16T14:02:11.416Z,56.40
2022-08-16T14:04:41.099Z,56.29
2022-08-16T14:07:11.250Z,56.20
2022-08-16T14:09:39.548Z,56.47
2022-08-16T14:12:20.089Z,56.32
2022-08-16T14:14:56.369Z,56.14
2022-08-16T14:17:25.560Z,56.12
2022-08-16T14:19:53.985Z,55.57
2022-08-16T14:22:30.494Z,55.88
2022-08-16T14:25:03.243Z,55.67
2022-08-16T14:27:31.590Z,55.65
2022-08-16T14:30:01.336Z,54.98
2022-08-16T14:32:33.281Z,55.61
2022-08-16T14:35:03.191Z,55.46
2022-08-16T14:37:32.608Z,55.63
2022-08-16T14:40:01.093Z,55.36
2022-08-16T14:42:31.746Z,55.27
2022-08-16T14:45:01.282Z,55.19
2022-08-16T14:47:34.174Z,55.32
2022-08-16T14:50:05.804Z,55.35
2022-08-16T14:55:22.322Z,55.38
2022-08-16T14:57:52.840Z,55.36
2022-08-16T15:00:33.223Z,55.42
2022-08-16T15:03:10.707Z,55.34
2022-08-16T15:05:39.139Z,55.25
2022-08-16T15:08:07.542Z,55.68
2022-08-16T15:10:37.410Z,55.64
2022-08-16T15:13:11.170Z,55.28
2022-08-16T15:15:41.702Z,55.33
2022-08-16T15:18:11.917Z,55.46
2022-08-16T15:20:41.253Z,55.35
2022-08-16T15:23:09.954Z,55.31
2022-08-16T15:25:41.209Z,55.78
2022-08-16T15:28:23.516Z,55.35
2022-08-16T15:31:03.139Z,54.95
2022-08-16T15:33:32.461Z,54.75
2022-08-16T15:36:00.799Z,54.75
2022-08-16T15:38:55.000Z,54.47
2022-08-16T15:41:34.304Z,54.81
2022-08-16T15:44:10.814Z,54.19
2022-08-16T15:46:54.893Z,54.18
2022-08-16T15:49:27.288Z,54.36
2022-08-16T15:52:10.543Z,53.99
2022-08-16T15:54:43.812Z,54.20
2022-08-16T15:57:21.078Z,54.03
2022-08-16T15:59:52.808Z,54.04
2022-08-16T16:02:29.836Z,53.44
2022-08-16T16:05:01.864Z,53.87
2022-08-16T16:07:31.938Z,53.93
2022-08-16T16:10:00.384Z,53.81
2022-08-16T16:12:50.825Z,53.78
2022-08-16T16:15:18.502Z,53.84
2022-08-16T16:17:51.062Z,53.97
2022-08-16T16:20:20.778Z,53.44
2022-08-16T16:22:49.983Z,53.77
2022-08-16T16:25:18.488Z,53.59
2022-08-16T16:27:46.754Z,54.00
2022-08-16T16:30:37.397Z,53.97
2022-08-16T16:33:07.975Z,53.69
2022-08-16T16:35:36.430Z,53.93
2022-08-16T16:38:07.922Z,54.03
2022-08-16T16:40:46.422Z,53.87
2022-08-16T16:43:16.069Z,53.94
2022-08-16T16:45:44.531Z,54.28
2022-08-16T16:48:15.007Z,53.88
2022-08-16T16:50:45.779Z,54.45
2022-08-16T16:53:17.825Z,53.76
2022-08-16T16:55:51.538Z,54.11
2022-08-16T16:58:37.868Z,53.96
2022-08-16T17:01:06.183Z,54.02
2022-08-16T17:03:38.574Z,54.27
2022-08-16T17:06:09.109Z,54.17
2022-08-16T17:08:41.361Z,54.13
2022-08-16T17:11:09.975Z,54.22
2022-08-16T17:13:38.657Z,54.31
2022-08-16T17:16:08.679Z,54.27
2022-08-16T17:19:17.587Z,54.41
2022-08-16T17:21:39.206Z,54.44
2022-08-16T17:26:59.571Z,54.95
2022-08-16T17:29:32.724Z,55.08
2022-08-16T17:32:02.350Z,55.11
2022-08-16T17:34:51.032Z,55.21
2022-08-16T17:37:22.192Z,55.44
2022-08-16T17:39:26.679Z,54.93
2022-08-16T17:40:05.942Z,55.17
2022-08-16T17:42:34.554Z,55.45
2022-08-16T17:45:02.892Z,55.23
2022-08-16T17:47:30.988Z,55.50
2022-08-16T17:50:02.378Z,55.53
2022-08-16T17:52:30.757Z,55.64
2022-08-16T17:54:59.062Z,55.45
2022-08-16T17:57:27.446Z,55.69
2022-08-16T17:59:56.880Z,55.69
2022-08-16T18:02:43.727Z,55.69
2022-08-16T18:05:16.230Z,55.74
2022-08-16T18:07:44.558Z,56.14
2022-08-16T18:10:13.522Z,55.54
2022-08-16T18:13:01.566Z,55.59
2022-08-16T18:15:30.432Z,56.08
2022-08-16T18:17:58.598Z,55.95
2022-08-16T18:20:45.534Z,55.62
2022-08-16T18:23:15.694Z,55.54
2022-08-16T18:25:47.055Z,55.60
2022-08-16T18:28:15.399Z,55.88
2022-08-16T18:30:45.755Z,55.93
2022-08-16T18:33:18.094Z,56.02
2022-08-16T18:35:47.542Z,56.22
2022-08-16T18:38:15.889Z,56.14
2022-08-16T18:40:44.106Z,56.08
2022-08-16T18:43:13.207Z,56.14
2022-08-16T18:45:42.217Z,56.15
2022-08-16T18:48:10.602Z,56.48
2022-08-16T18:51:03.836Z,56.29
2022-08-16T18:53:29.230Z,56.58
2022-08-16T18:55:58.413Z,56.34
2022-08-16T18:58:26.819Z,56.59
2022-08-16T19:00:56.384Z,56.34
2022-08-16T19:03:26.247Z,56.24
2022-08-16T19:05:57.040Z,56.54
2022-08-16T19:08:25.527Z,56.34
2022-08-16T19:10:57.318Z,56.28
2022-08-16T19:13:27.307Z,56.92
2022-08-16T19:15:56.451Z,56.58
2022-08-16T19:18:24.735Z,56.37
2022-08-16T19:20:53.090Z,56.62
2022-08-16T19:23:22.364Z,56.73
2022-08-16T19:25:54.324Z,56.52
2022-08-16T19:28:49.014Z,56.85
2022-08-16T19:31:15.703Z,56.40
2022-08-16T19:33:53.256Z,56.66
2022-08-16T19:36:31.155Z,56.75
2022-08-16T19:39:05.026Z,56.57
2022-08-16T19:41:35.220Z,56.33
2022-08-16T19:44:05.200Z,56.23
2022-08-16T19:46:33.319Z,56.42
2022-08-16T19:49:01.452Z,56.62
2022-08-16T19:51:29.607Z,56.75
2022-08-16T19:53:57.758Z,56.70
2022-08-16T19:56:27.040Z,56.58
2022-08-16T19:59:18.843Z,56.76
2022-08-16T20:01:45.082Z,56.43
2022-08-16T20:04:13.495Z,56.81
2022-08-16T20:06:41.781Z,56.56
2022-08-16T20:09:10.341Z,56.57
2022-08-16T20:11:43.152Z,56.63
2022-08-16T20:14:11.232Z,56.56
2022-08-16T20:16:48.751Z,56.74
2022-08-16T20:19:16.855Z,56.61
2022-08-16T20:21:45.006Z,56.53
2022-08-16T20:24:32.566Z,56.52
2022-08-16T20:27:01.470Z,56.45
2022-08-16T20:29:30.418Z,56.72
2022-08-16T20:32:00.038Z,56.59
2022-08-16T20:34:28.207Z,56.48
2022-08-16T20:36:56.358Z,56.43
2022-08-16T20:39:24.602Z,56.66
2022-08-16T20:41:52.899Z,56.46
2022-08-16T20:44:22.664Z,56.33
2022-08-16T20:46:53.181Z,56.24
2022-08-16T20:49:22.618Z,56.57
2022-08-16T20:51:54.844Z,56.43
2022-08-16T20:54:26.951Z,56.38
2022-08-16T20:56:55.001Z,56.26
2022-08-16T20:59:23.203Z,56.70
2022-08-16T21:01:51.414Z,55.96
2022-08-16T21:04:20.175Z,56.37
2022-08-16T21:06:53.764Z,56.39
2022-08-16T21:09:24.417Z,56.35
2022-08-16T21:11:53.690Z,56.21
2022-08-16T21:14:21.897Z,56.15
2022-08-16T21:16:50.046Z,56.13
2022-08-16T21:19:18.149Z,56.27
2022-08-16T21:21:46.240Z,56.14
2022-08-16T21:24:15.790Z,56.33
2022-08-16T21:26:53.846Z,56.12
2022-08-16T21:29:25.175Z,56.09
2022-08-16T21:32:09.057Z,56.39
2022-08-16T21:34:37.257Z,56.40
2022-08-16T21:37:05.500Z,56.39
2022-08-16T21:39:35.238Z,56.45
2022-08-16T21:42:03.390Z,56.61
2022-08-16T21:44:34.433Z,56.99
2022-08-16T21:47:08.306Z,56.68
2022-08-16T21:49:37.839Z,56.68
2022-08-16T21:52:06.890Z,56.69
2022-08-16T21:54:36.659Z,56.63
2022-08-16T21:57:10.159Z,56.47
2022-08-16T21:59:39.207Z,56.34
2022-08-16T22:02:07.590Z,56.52
2022-08-16T22:04:38.996Z,56.52
2022-08-16T22:07:07.958Z,56.49
2022-08-16T22:09:37.471Z,56.73
2022-08-16T22:12:06.472Z,56.54
2022-08-16T22:14:34.687Z,56.50
2022-08-16T22:17:02.839Z,56.53
2022-08-16T22:19:31.080Z,56.61
2022-08-16T22:22:01.358Z,56.45
2022-08-16T22:24:29.559Z,56.33
2022-08-16T22:26:59.108Z,56.35
2022-08-16T22:29:27.210Z,56.54
2022-08-16T22:31:55.741Z,56.27
2022-08-16T22:34:23.835Z,56.19
2022-08-16T22:36:52.098Z,56.38
2022-08-16T22:39:20.210Z,56.31
2022-08-16T22:41:49.907Z,56.34
2022-08-16T22:44:19.404Z,56.46
2022-08-16T22:46:47.579Z,56.47
2022-08-16T22:49:15.705Z,56.65
2022-08-16T22:51:43.847Z,56.37
2022-08-16T22:54:43.833Z,56.37
2022-08-16T22:57:00.386Z,56.35
2022-08-16T22:59:30.455Z,56.45
2022-08-16T23:01:58.838Z,56.31
2022-08-16T23:04:26.999Z,56.39
2022-08-16T23:06:55.149Z,56.31
2022-08-16T23:09:23.601Z,56.21
2022-08-16T23:11:51.744Z,56.35
2022-08-16T23:14:19.803Z,56.51
2022-08-16T23:16:49.342Z,56.01
2022-08-16T23:19:19.738Z,56.52
2022-08-16T23:21:49.383Z,56.42
2022-08-16T23:24:19.433Z,56.15
2022-08-16T23:26:49.397Z,56.17
2022-08-16T23:29:24.749Z,56.05
2022-08-16T23:31:58.351Z,56.12
2022-08-16T23:34:27.090Z,56.05
2022-08-16T23:36:55.477Z,56.06
2022-08-16T23:39:23.753Z,56.06
2022-08-16T23:41:51.995Z,56.03
2022-08-16T23:44:55.358Z,55.96
2022-08-16T23:47:09.743Z,55.98
2022-08-16T23:49:56.550Z,55.99
2022-08-16T23:52:53.248Z,55.85
2022-08-16T23:55:16.423Z,55.77
2022-08-16T23:57:45.765Z,55.88
